This is the latest recevied weather packets stored in our database for station/object OE1HTB-13. If no packets are shown the sender has not sent any weather packets the latest 10 day(s).
| Time | Temp. | Humidity | Pressure | Rain* | Wind** | Luminosity | Snow |
|---|---|---|---|---|---|---|---|
| 1777795270 | 18.89° C | 48% | 1018.1 hPa | 0 mm | - | 652 W/m² | - |
| 1777794370 | 17.78° C | 50% | 1018.1 hPa | 0 mm | - | 621 W/m² | - |
| 1777793474 | 17.78° C | 50% | 1017.9 hPa | 0 mm | - | 587 W/m² | - |
| 1777792575 | 16.67° C | 53% | 1017.9 hPa | 0 mm | - | 550 W/m² | - |
| 1777791674 | 16.67° C | 54% | 1017.9 hPa | 0 mm | - | 508 W/m² | - |
| 1777790774 | 15.56° C | 56% | 1018 hPa | 0 mm | - | 471 W/m² | - |
| 1777789874 | 14.44° C | 60% | 1017.9 hPa | 0 mm | - | 91 W/m² | - |
| 1777788974 | 13.89° C | 61% | 1017.8 hPa | 0 mm | - | 179 W/m² | - |
| 1777788073 | 13.33° C | 62% | 1017.8 hPa | 0 mm | - | 67 W/m² | - |
| 1777787173 | 12.78° C | 65% | 1017.6 hPa | 0 mm | - | 47 W/m² | - |
| 1777786273 | 12.22° C | 67% | 1017.6 hPa | 0 mm | - | 47 W/m² | - |
| 1777785373 | 11.67° C | 68% | 1017.6 hPa | 0 mm | - | 183 W/m² | - |
| 1777784474 | 11.11° C | 69% | 1017.6 hPa | 0 mm | - | 171 W/m² | - |
| 1777783574 | 10.56° C | 71% | 1017.6 hPa | 0 mm | - | 67 W/m² | - |
| 1777782673 | 10° C | 72% | 1017.5 hPa | 0 mm | - | 33 W/m² | - |
| 1777781774 | 9.44° C | 72% | 1017.5 hPa | 0 mm | - | 16 W/m² | - |
| 1777780872 | 9.44° C | 71% | 1017.4 hPa | 0 mm | - | 11 W/m² | - |
| 1777779972 | 9.44° C | 70% | 1017.3 hPa | 0 mm | - | 7 W/m² | - |
| 1777779072 | 9.44° C | 71% | 1017.3 hPa | 0 mm | - | 0 W/m² | - |
| 1777778172 | 9.44° C | 72% | 1017.2 hPa | 0 mm | - | 0 W/m² | - |
| 1777777272 | 9.44° C | 71% | 1017.3 hPa | 0 mm | - | 0 W/m² | - |
| 1777776372 | 10° C | 69% | 1017.3 hPa | 0 mm | - | 0 W/m² | - |
| 1777775471 | 10.56° C | 66% | 1017.4 hPa | 0 mm | - | 0 W/m² | - |
| 1777774571 | 11.11° C | 62% | 1017 hPa | 0 mm | - | 0 W/m² | - |
| 1777773671 | 11.67° C | 62% | 1017 hPa | 0 mm | - | 0 W/m² | - |
* Rain latest hour (hover to see other rain measurements)
** Current wind speed in m/s (hover to see current wind gust speed)